Time;durP1;ratioP1;P1;durP2;ratioP2;P2;SDS_P1;SDS_P2;PMS_P1;PMS_P2;Temp;Humidity;BMP_temperature;BMP_pressure;BME280_temperature;BME280_humidity;BME280_pressure;Samples;Min_cycle;Max_cycle;Signal;HPM_P1;HPM_P2
2023/05/20 00:00:57;;;;;;;;;;;;;;;-142.75;100.00;77853.94;5087051;28;19916;-62
2023/05/20 00:03:22;;;;;;;;;;;;;;;-142.75;100.00;77857.88;5086259;28;19923;-62
2023/05/20 00:05:47;;;;;;;;;;;;;;;-142.75;100.00;77865.75;5086412;28;19916;-62
2023/05/20 00:08:13;;;;;;;;;;;;;;;-142.75;100.00;77861.81;5086416;28;19920;-65
2023/05/20 00:10:38;;;;;;;;;;;;;;;-142.75;100.00;77879.53;5086547;28;19923;-63
2023/05/20 00:13:03;;;;;;;;;;;;;;;-142.75;100.00;77877.56;5086262;28;19939;-65
2023/05/20 00:15:29;;;;;;;;;;;;;;;-142.75;100.00;77883.47;5086273;28;19916;-62
2023/05/20 00:17:54;;;;;;;;;;;;;;;-142.75;100.00;77885.44;5086635;28;19918;-63
2023/05/20 00:20:20;;;;;;;;;;;;;;;-142.75;100.00;77887.41;5086599;28;19924;-64
2023/05/20 00:22:45;;;;;;;;;;;;;;;-142.75;100.00;77881.50;5085491;28;19916;-65
2023/05/20 00:25:13;;;;;;;;;;;;;;;-142.75;100.00;77899.22;5085912;28;20452;-63
2023/05/20 00:27:38;;;;;;;;;;;;;;;-142.75;100.00;77899.22;5085393;28;19927;-64
2023/05/20 00:30:04;;;;;;;;;;;;;;;-142.75;100.00;77905.13;5086101;28;19932;-63
2023/05/20 00:32:29;;;;;;;;;;;;;;;-142.75;100.00;77913.03;5086195;28;19916;-66
2023/05/20 00:34:56;;;;;;;;;;;;;;;-142.75;100.00;77913.03;5089847;28;19923;-64
2023/05/20 00:37:21;;;;;;;;;;;;;;;-142.75;100.00;77928.78;5084630;28;19974;-62
2023/05/20 00:39:46;;;;;;;;;;;;;;;-142.75;100.00;77924.84;5089301;28;20546;-64
2023/05/20 00:42:18;;;;;;;;;;;;;;;-142.75;100.00;77920.91;5089546;28;20007;-63
2023/05/20 00:44:43;;;;;;;;;;;;;;;-142.75;100.00;77920.91;5084516;28;19916;-64
2023/05/20 00:47:08;;;;;;;;;;;;;;;-142.75;100.00;77909.06;5085444;28;19920;-64
2023/05/20 00:49:33;;;;;;;;;;;;;;;-142.75;100.00;77913.03;5085284;28;19967;-64
2023/05/20 00:51:59;;;;;;;;;;;;;;;-142.75;100.00;77911.06;5084357;28;20371;-63
2023/05/20 00:54:24;;;;;;;;;;;;;;;-142.75;100.00;77907.09;5085860;28;20449;-63
2023/05/20 00:56:49;;;;;;;;;;;;;;;-142.75;100.00;77911.06;5091390;28;20006;-63
2023/05/20 00:59:15;;;;;;;;;;;;;;;-142.75;100.00;77907.09;5085796;28;19962;-64
2023/05/20 01:01:40;;;;;;;;;;;;;;;-142.75;100.00;77916.97;5087645;28;19917;-63
2023/05/20 01:04:05;;;;;;;;;;;;;;;-142.75;100.00;77909.06;5085628;28;19916;-61
2023/05/20 01:06:32;;;;;;;;;;;;;;;-142.75;100.00;77905.13;5088261;28;19955;-63
2023/05/20 01:08:57;;;;;;;;;;;;;;;-142.75;100.00;77913.03;5084472;28;19923;-63
2023/05/20 01:11:30;;;;;;;;;;;;;;;-142.75;100.00;77911.06;5084475;28;19922;-65
2023/05/20 01:13:58;;;;;;;;;;;;;;;-142.75;100.00;77913.03;5083735;28;20424;-63
2023/05/20 01:16:24;;;;;;;;;;;;;;;-142.75;100.00;77901.19;5083959;28;19920;-66
2023/05/20 01:18:54;;;;;;;;;;;;;;;-142.75;100.00;77913.03;5085925;28;19923;-64
2023/05/20 01:21:19;;;;;;;;;;;;;;;-142.75;100.00;77913.03;5085782;28;19916;-64
2023/05/20 01:23:44;;;;;;;;;;;;;;;-142.75;100.00;77920.91;5085508;28;20295;-65
2023/05/20 01:26:12;;;;;;;;;;;;;;;-142.75;100.00;77926.81;5085397;28;20006;-63
2023/05/20 01:28:38;;;;;;;;;;;;;;;-142.75;100.00;77932.72;5085449;28;19985;-64
2023/05/20 01:31:04;;;;;;;;;;;;;;;-142.75;100.00;77928.78;5085335;28;20529;-64
2023/05/20 01:33:30;;;;;;;;;;;;;;;-142.75;100.00;77936.66;5085324;28;19916;-65
2023/05/20 01:35:56;;;;;;;;;;;;;;;-142.75;100.00;77928.78;5089888;28;19923;-63
2023/05/20 01:38:22;;;;;;;;;;;;;;;-142.75;100.00;77926.81;5090175;28;19924;-64
2023/05/20 01:40:48;;;;;;;;;;;;;;;-142.75;100.00;77928.78;5089649;28;19916;-64
2023/05/20 01:43:14;;;;;;;;;;;;;;;-142.75;100.00;77934.69;5090786;28;19958;-63
2023/05/20 01:45:40;;;;;;;;;;;;;;;-142.75;100.00;77936.66;5087663;28;20413;-63
2023/05/20 01:48:05;;;;;;;;;;;;;;;-142.75;100.00;77944.53;5089795;28;19916;-63
2023/05/20 01:50:31;;;;;;;;;;;;;;;-142.75;100.00;77940.59;5089096;28;19916;-64
2023/05/20 01:52:56;;;;;;;;;;;;;;;-142.75;100.00;77938.63;5088915;28;19923;-63
2023/05/20 01:55:21;;;;;;;;;;;;;;;-142.75;100.00;77944.53;5087500;28;19973;-63
2023/05/20 01:57:46;;;;;;;;;;;;;;;-142.75;100.00;77948.47;5088875;28;20455;-64
2023/05/20 02:00:12;;;;;;;;;;;;;;;-142.75;100.00;77948.47;5091332;28;19962;-64
2023/05/20 02:02:37;;;;;;;;;;;;;;;-142.75;100.00;77948.47;5088043;28;20030;-66
2023/05/20 02:05:02;;;;;;;;;;;;;;;-142.75;100.00;77952.41;5088712;28;20444;-63
2023/05/20 02:07:27;;;;;;;;;;;;;;;-142.75;100.00;77944.53;5088665;28;19920;-63
2023/05/20 02:09:53;;;;;;;;;;;;;;;-142.75;100.00;77942.56;5088954;28;20016;-63
2023/05/20 02:12:18;;;;;;;;;;;;;;;-142.75;100.00;77938.63;5088731;28;19934;-63
2023/05/20 02:14:44;;;;;;;;;;;;;;;-142.75;100.00;77924.84;5088543;28;19924;-60
2023/05/20 02:17:09;;;;;;;;;;;;;;;-142.75;100.00;77940.59;5088727;28;20359;-64
2023/05/20 02:19:34;;;;;;;;;;;;;;;-142.75;100.00;77932.72;5089433;28;20014;-65
2023/05/20 02:22:00;;;;;;;;;;;;;;;-142.75;100.00;77928.78;5088599;28;19916;-63
2023/05/20 02:24:25;;;;;;;;;;;;;;;-142.75;100.00;77932.72;5088504;28;20102;-65
2023/05/20 02:26:52;;;;;;;;;;;;;;;-142.75;100.00;77938.63;5088035;28;19927;-65
2023/05/20 02:29:18;;;;;;;;;;;;;;;-142.75;100.00;77918.94;5088434;28;20406;-66
2023/05/20 02:31:44;;;;;;;;;;;;;;;-142.75;100.00;77918.94;5088167;28;20033;-63
2023/05/20 02:34:09;;;;;;;;;;;;;;;-142.75;100.00;77922.88;5088261;28;19951;-64
2023/05/20 02:36:35;;;;;;;;;;;;;;;-142.75;100.00;77918.94;5086683;28;19958;-62
2023/05/20 02:39:00;;;;;;;;;;;;;;;-142.75;100.00;77915.00;5088425;28;20015;-64
2023/05/20 02:41:25;;;;;;;;;;;;;;;-142.75;100.00;77909.06;5088112;28;20292;-64
2023/05/20 02:43:50;;;;;;;;;;;;;;;-142.75;100.00;77909.06;5087930;28;20358;-64
2023/05/20 02:46:17;;;;;;;;;;;;;;;-142.75;100.00;77907.09;5086952;28;19926;-63
2023/05/20 02:48:42;;;;;;;;;;;;;;;-142.75;100.00;77911.06;5088678;28;19919;-65
2023/05/20 02:51:07;;;;;;;;;;;;;;;-142.75;100.00;77903.16;5088329;28;19973;-63
2023/05/20 02:53:33;;;;;;;;;;;;;;;-142.75;100.00;77915.00;5087945;28;20611;-64
2023/05/20 02:55:58;;;;;;;;;;;;;;;-142.75;100.00;77915.00;5087867;28;19942;-61
2023/05/20 02:58:25;;;;;;;;;;;;;;;-142.75;100.00;77926.81;5087806;28;19931;-64
2023/05/20 03:00:50;;;;;;;;;;;;;;;-142.75;100.00;77924.84;5088255;28;20282;-63
2023/05/20 03:03:15;;;;;;;;;;;;;;;-142.75;100.00;77926.81;5086435;28;19923;-62
2023/05/20 03:05:44;;;;;;;;;;;;;;;-142.75;100.00;77928.78;5087456;28;19931;-63
2023/05/20 03:08:10;;;;;;;;;;;;;;;-142.75;100.00;77930.75;5087880;28;19916;-64
2023/05/20 03:10:36;;;;;;;;;;;;;;;-142.75;100.00;77926.81;5087551;28;20085;-65
2023/05/20 03:13:01;;;;;;;;;;;;;;;-142.75;100.00;77936.66;5091904;28;19916;-63
2023/05/20 03:15:27;;;;;;;;;;;;;;;-142.75;100.00;77942.56;5087743;28;19981;-65
2023/05/20 03:17:52;;;;;;;;;;;;;;;-142.75;100.00;77938.63;5087463;28;20383;-66
2023/05/20 03:20:18;;;;;;;;;;;;;;;-142.75;100.00;77938.63;5088217;28;20011;-64
2023/05/20 03:22:43;;;;;;;;;;;;;;;-142.75;100.00;77940.59;5087034;28;20295;-64
2023/05/20 03:25:08;;;;;;;;;;;;;;;-142.75;100.00;77936.66;5087464;28;20478;-66
2023/05/20 03:27:36;;;;;;;;;;;;;;;-142.75;100.00;77944.53;5087134;28;19924;-65
2023/05/20 03:30:02;;;;;;;;;;;;;;;-142.75;100.00;77944.53;5087333;28;19946;-62
2023/05/20 03:32:27;;;;;;;;;;;;;;;-142.75;100.00;77960.28;5095807;28;20383;-64
2023/05/20 03:34:53;;;;;;;;;;;;;;;-142.75;100.00;77950.44;5087248;28;19916;-64
2023/05/20 03:37:18;;;;;;;;;;;;;;;-142.75;100.00;77956.34;5086935;28;20634;-63
2023/05/20 03:39:43;;;;;;;;;;;;;;;-142.75;100.00;77964.22;5087038;28;19952;-65
2023/05/20 03:42:09;;;;;;;;;;;;;;;-142.75;100.00;77968.16;5087093;28;19916;-64
2023/05/20 03:44:34;;;;;;;;;;;;;;;-142.75;100.00;77964.22;5087111;28;20395;-62
2023/05/20 03:46:59;;;;;;;;;;;;;;;-142.75;100.00;77958.31;5086789;28;19935;-63
2023/05/20 03:49:24;;;;;;;;;;;;;;;-142.75;100.00;77936.66;5087694;28;19923;-66
2023/05/20 03:51:50;;;;;;;;;;;;;;;-142.75;100.00;77934.69;5088402;28;19984;-62
2023/05/20 03:54:16;;;;;;;;;;;;;;;-142.75;100.00;77938.63;5085494;28;19916;-65
2023/05/20 03:56:41;;;;;;;;;;;;;;;-142.75;100.00;77932.72;5086276;28;20065;-66
2023/05/20 03:59:06;;;;;;;;;;;;;;;-142.75;100.00;77936.66;5086962;28;20007;-64
2023/05/20 04:01:32;;;;;;;;;;;;;;;-142.75;100.00;77930.75;5085446;28;19916;-64
2023/05/20 04:03:57;;;;;;;;;;;;;;;-142.75;100.00;77930.75;5098060;28;20057;-64
2023/05/20 04:06:23;;;;;;;;;;;;;;;-142.75;100.00;77938.63;5086294;28;20007;-61
2023/05/20 04:08:48;;;;;;;;;;;;;;;-142.75;100.00;77934.69;5086407;28;19916;-63
2023/05/20 04:11:14;;;;;;;;;;;;;;;-142.75;100.00;77926.81;5086491;28;19980;-63
2023/05/20 04:13:39;;;;;;;;;;;;;;;-142.75;100.00;77932.72;5086228;28;20008;-64
2023/05/20 04:16:04;;;;;;;;;;;;;;;-142.75;100.00;77936.66;5086119;28;19916;-64
2023/05/20 04:18:30;;;;;;;;;;;;;;;-142.75;100.00;77928.78;5084962;28;19943;-64
2023/05/20 04:20:55;;;;;;;;;;;;;;;-142.75;100.00;77926.81;5088994;28;19916;-64
2023/05/20 04:23:21;;;;;;;;;;;;;;;-142.75;100.00;77930.75;5090358;28;20673;-65
2023/05/20 04:25:47;;;;;;;;;;;;;;;-142.75;100.00;77928.78;5085722;28;20234;-63
2023/05/20 04:28:15;;;;;;;;;;;;;;;-142.75;100.00;77926.81;5086104;28;20452;-65
2023/05/20 04:30:41;;;;;;;;;;;;;;;-142.75;100.00;77930.75;5092812;28;19924;-64
2023/05/20 04:33:06;;;;;;;;;;;;;;;-142.75;100.00;77924.84;5086252;28;19922;-63
2023/05/20 04:35:33;;;;;;;;;;;;;;;-142.75;100.00;77920.91;5086233;28;19916;-63
2023/05/20 04:37:59;;;;;;;;;;;;;;;-142.75;100.00;77915.00;5086005;28;21203;-61
2023/05/20 04:40:26;;;;;;;;;;;;;;;-142.75;100.00;77913.03;5086094;28;19916;-63
2023/05/20 04:42:51;;;;;;;;;;;;;;;-142.75;100.00;77911.06;5085176;28;19916;-64
2023/05/20 04:45:17;;;;;;;;;;;;;;;-142.75;100.00;77893.31;5085997;28;19987;-63
2023/05/20 04:47:43;;;;;;;;;;;;;;;-142.75;100.00;77897.25;5085627;28;20426;-64
2023/05/20 04:50:12;;;;;;;;;;;;;;;-142.75;100.00;77881.50;5086763;28;19920;-64
2023/05/20 04:52:38;;;;;;;;;;;;;;;-142.75;100.00;77869.69;5085493;28;20379;-63
2023/05/20 04:55:03;;;;;;;;;;;;;;;-142.75;100.00;77848.03;5085799;28;19923;-64
2023/05/20 04:57:29;;;;;;;;;;;;;;;-142.75;100.00;77857.88;5085660;28;20340;-64
2023/05/20 04:59:57;;;;;;;;;;;;;;;-142.75;100.00;77834.25;5084563;28;19924;-65
2023/05/20 05:02:23;;;;;;;;;;;;;;;-142.75;100.00;77830.31;5088748;28;19916;-64
2023/05/20 05:04:48;;;;;;;;;;;;;;;-142.75;100.00;77806.69;5085621;28;19923;-65
2023/05/20 05:07:13;;;;;;;;;;;;;;;-142.75;100.00;77802.75;5085362;28;20387;-65
2023/05/20 05:09:38;;;;;;;;;;;;;;;-142.75;100.00;77787.00;5083774;28;19923;-64
2023/05/20 05:12:04;;;;;;;;;;;;;;;-142.75;100.00;77788.97;5085731;28;19922;-64
2023/05/20 05:14:29;;;;;;;;;;;;;;;-142.75;100.00;77771.25;5085354;28;20379;-64
2023/05/20 05:16:54;;;;;;;;;;;;;;;-142.75;100.00;77777.16;5084919;28;19923;-63
2023/05/20 05:19:19;;;;;;;;;;;;;;;-142.75;100.00;77767.31;5084090;28;19916;-65
2023/05/20 05:21:46;;;;;;;;;;;;;;;-142.75;100.00;77755.50;5085526;28;20014;-65
2023/05/20 05:24:11;;;;;;;;;;;;;;;-142.75;100.00;77749.59;5087889;28;19950;-64
2023/05/20 05:26:37;;;;;;;;;;;;;;;-142.75;100.00;77727.94;5085139;28;20403;-64
2023/05/20 05:29:02;;;;;;;;;;;;;;;-142.75;100.00;77716.09;5085433;28;19938;-64
2023/05/20 05:31:27;;;;;;;;;;;;;;;-142.75;100.00;77716.09;5085497;28;19916;-63
2023/05/20 05:33:52;;;;;;;;;;;;;;;-142.75;100.00;77723.97;5085338;28;19924;-64
2023/05/20 05:36:18;;;;;;;;;;;;;;;-142.75;100.00;77723.97;5085086;28;19923;-64
2023/05/20 05:38:43;;;;;;;;;;;;;;;-142.75;100.00;77729.88;5085242;28;19938;-63
2023/05/20 05:41:08;;;;;;;;;;;;;;;-142.75;100.00;77692.47;5089603;28;20386;-64
2023/05/20 05:43:34;;;;;;;;;;;;;;;-142.75;100.00;77649.16;5085906;28;19916;-65
2023/05/20 05:45:59;;;;;;;;;;;;;;;-142.75;100.00;77621.59;5083551;28;19973;-65
2023/05/20 05:48:24;;;;;;;;;;;;;;;-142.75;100.00;77603.88;5088017;28;20294;-62
2023/05/20 05:50:49;;;;;;;;;;;;;;;-142.75;100.00;77572.38;5082866;28;20402;-64
2023/05/20 05:53:15;;;;;;;;;;;;;;;-142.75;100.00;77554.66;5085874;28;19930;-63
2023/05/20 05:55:40;;;;;;;;;;;;;;;-142.75;100.00;77558.59;5089203;28;20467;-64
2023/05/20 05:58:05;;;;;;;;;;;;;;;-142.75;100.00;77552.69;5085092;28;19916;-64
2023/05/20 06:00:30;;;;;;;;;;;;;;;-142.75;100.00;77538.91;5084757;28;20379;-64
2023/05/20 06:02:55;;;;;;;;;;;;;;;-142.75;100.00;77517.25;5090780;28;20626;-64
2023/05/20 06:05:21;;;;;;;;;;;;;;;-142.75;100.00;77505.44;5084814;28;20276;-63
2023/05/20 06:07:46;;;;;;;;;;;;;;;-142.75;100.00;77495.59;5084370;28;19942;-64
2023/05/20 06:10:11;;;;;;;;;;;;;;;-142.75;100.00;77503.47;5085019;28;19927;-65
2023/05/20 06:12:36;;;;;;;;;;;;;;;-142.75;100.00;77470.00;5084779;28;19943;-65
2023/05/20 06:15:02;;;;;;;;;;;;;;;-142.75;100.00;77495.59;5085059;28;20002;-64
2023/05/20 06:17:27;;;;;;;;;;;;;;;-142.75;100.00;77471.97;5085213;28;20381;-63
2023/05/20 06:19:52;;;;;;;;;;;;;;;-142.75;100.00;77470.00;5085945;28;19977;-64
2023/05/20 06:22:17;;;;;;;;;;;;;;;-142.75;100.00;77452.25;5086817;28;19968;-65
2023/05/20 06:24:43;;;;;;;;;;;;;;;-142.75;100.00;77448.34;5088172;28;19920;-64
2023/05/20 06:27:08;;;;;;;;;;;;;;;-142.75;100.00;77416.81;5085441;28;19963;-65
2023/05/20 06:29:33;;;;;;;;;;;;;;;-142.75;100.00;77410.91;5088568;28;19962;-63
2023/05/20 06:31:59;;;;;;;;;;;;;;;-142.75;100.00;77385.31;5088463;28;19920;-64
2023/05/20 06:34:24;;;;;;;;;;;;;;;-142.75;100.00;77381.38;5084976;28;19916;-60
2023/05/20 06:36:49;;;;;;;;;;;;;;;-142.75;100.00;77369.56;5087986;28;19916;-64
2023/05/20 06:39:14;;;;;;;;;;;;;;;-142.75;100.00;77361.69;5086889;28;19923;-64
2023/05/20 06:41:40;;;;;;;;;;;;;;;-142.75;100.00;77353.81;5088222;28;19916;-65
2023/05/20 06:44:06;;;;;;;;;;;;;;;-142.75;100.00;77320.34;5087965;28;19916;-64
2023/05/20 06:46:31;;;;;;;;;;;;;;;-142.75;100.00;77316.41;5088106;28;19924;-65
2023/05/20 06:48:56;;;;;;;;;;;;;;;-142.75;100.00;77300.66;5096395;28;19916;-66
2023/05/20 06:51:21;;;;;;;;;;;;;;;-142.75;100.00;77277.03;5088572;28;19916;-65
2023/05/20 06:53:47;;;;;;;;;;;;;;;-142.75;100.00;77267.19;5087443;28;20002;-64
2023/05/20 06:56:12;;;;;;;;;;;;;;;-142.75;100.00;77251.44;5086350;28;20409;-67
2023/05/20 06:58:37;;;;;;;;;;;;;;;-142.75;100.00;77235.69;5087891;28;19923;-64
2023/05/20 07:01:02;;;;;;;;;;;;;;;-142.75;100.00;77243.56;5087843;28;19923;-65
2023/05/20 07:03:28;;;;;;;;;;;;;;;-142.75;100.00;77202.22;5087768;28;19920;-62
2023/05/20 07:05:53;;;;;;;;;;;;;;;-142.75;100.00;77206.16;5087645;28;20452;-65
2023/05/20 07:08:18;;;;;;;;;;;;;;;-142.75;100.00;77192.38;5087679;28;19998;-65
2023/05/20 07:10:44;;;;;;;;;;;;;;;-142.75;100.00;77192.38;5086392;28;20379;-64
2023/05/20 07:13:09;;;;;;;;;;;;;;;-142.75;100.00;77172.69;5087624;28;19923;-63
2023/05/20 07:15:35;;;;;;;;;;;;;;;-142.75;100.00;77164.81;5092502;28;19916;-64
2023/05/20 07:18:00;;;;;;;;;;;;;;;-142.75;100.00;77151.03;5086564;28;20398;-64
2023/05/20 07:20:25;;;;;;;;;;;;;;;-142.75;100.00;77131.34;5088559;28;19966;-65
2023/05/20 07:22:50;;;;;;;;;;;;;;;-142.75;100.00;77105.75;5087101;28;19923;-64
2023/05/20 07:25:16;;;;;;;;;;;;;;;-142.75;100.00;77082.13;5086330;28;19916;-65
2023/05/20 07:27:41;;;;;;;;;;;;;;;-142.75;100.00;77066.38;5090052;28;19919;-65
2023/05/20 07:30:07;;;;;;;;;;;;;;;-142.75;100.00;77048.66;5087413;28;19917;-64
2023/05/20 07:32:32;;;;;;;;;;;;;;;-142.75;100.00;77046.69;5086743;28;20003;-64
2023/05/20 07:34:58;;;;;;;;;;;;;;;-142.75;100.00;77023.06;5086944;28;19923;-62
2023/05/20 07:37:23;;;;;;;;;;;;;;;-142.75;100.00;77023.06;5087641;28;20350;-65
2023/05/20 07:39:48;;;;;;;;;;;;;;;-142.75;100.00;76965.97;5086952;28;19926;-64
2023/05/20 07:42:13;;;;;;;;;;;;;;;-142.75;100.00;76983.69;5085617;28;19926;-65
2023/05/20 07:44:38;;;;;;;;;;;;;;;-142.75;100.00;76969.91;5086847;28;19916;-63
2023/05/20 07:47:04;;;;;;;;;;;;;;;-142.75;99.98;76960.06;5086835;28;20391;-64
2023/05/20 07:49:30;;;;;;;;;;;;;;;-142.75;100.00;76948.25;5095997;28;20008;-64
2023/05/20 07:51:55;;;;;;;;;;;;;;;-142.75;98.00;76952.19;5086970;28;19923;-64
2023/05/20 07:54:20;;;;;;;;;;;;;;;-142.75;100.00;76940.38;5086896;28;19920;-64
2023/05/20 07:56:45;;;;;;;;;;;;;;;-142.75;100.00;76908.88;5085340;28;20375;-64
2023/05/20 07:59:10;;;;;;;;;;;;;;;-142.75;99.36;76877.38;5085739;28;19924;-65
2023/05/20 08:01:36;;;;;;;;;;;;;;;-142.75;93.75;76928.56;5086681;28;19916;-64
2023/05/20 08:04:01;;;;;;;;;;;;;;;-142.75;96.74;76918.72;5086533;28;19916;-66
2023/05/20 08:06:27;;;;;;;;;;;;;;;-142.75;99.01;76851.78;5086584;28;19924;-64
2023/05/20 08:08:55;;;;;;;;;;;;;;;-142.75;96.57;76832.09;5085049;28;19924;-64
2023/05/20 08:11:21;;;;;;;;;;;;;;;-142.75;88.34;76851.78;5088748;28;19994;-64
2023/05/20 08:13:46;;;;;;;;;;;;;;;-142.75;94.46;76830.13;5088681;28;20003;-64
2023/05/20 08:16:12;;;;;;;;;;;;;;;-142.75;91.04;76810.44;5086490;28;19970;-66
2023/05/20 08:18:37;;;;;;;;;;;;;;;-142.75;92.02;76806.50;5086321;28;19980;-65
2023/05/20 08:21:02;;;;;;;;;;;;;;;-142.75;88.83;76790.78;5086890;28;19923;-65
2023/05/20 08:23:27;;;;;;;;;;;;;;;-142.75;89.87;76769.13;5086269;28;20379;-65
2023/05/20 08:25:53;;;;;;;;;;;;;;;-142.75;89.63;76765.19;5085855;28;20002;-63
2023/05/20 08:28:18;;;;;;;;;;;;;;;-142.75;89.94;76761.25;5086265;28;20325;-65
2023/05/20 08:30:43;;;;;;;;;;;;;;;-142.75;91.23;76715.97;5086233;28;19920;-64
2023/05/20 08:33:09;;;;;;;;;;;;;;;-142.75;90.09;76696.28;5086190;28;19915;-65
2023/05/20 08:35:34;;;;;;;;;;;;;;;-142.75;88.84;76680.53;5085837;28;19920;-64
2023/05/20 08:38:00;;;;;;;;;;;;;;;-142.75;90.11;76670.69;5085863;28;19931;-65
2023/05/20 08:40:25;;;;;;;;;;;;;;;-142.75;88.00;76670.69;5086427;28;20272;-66
2023/05/20 08:42:53;;;;;;;;;;;;;;;-142.75;86.72;76641.16;5085826;28;19947;-64
2023/05/20 08:45:26;;;;;;;;;;;;;;;-142.75;82.23;76613.59;5085379;28;20014;-65
2023/05/20 08:47:51;;;;;;;;;;;;;;;-142.75;79.74;76631.31;5084307;28;20375;-64
2023/05/20 08:50:17;;;;;;;;;;;;;;;-142.75;80.75;76619.50;5086680;28;20011;-64
2023/05/20 08:52:44;;;;;;;;;;;;;;;-142.75;81.55;76599.81;5085628;28;19930;-66
2023/05/20 08:55:13;;;;;;;;;;;;;;;-142.75;82.28;76589.97;5084607;28;20273;-65
2023/05/20 08:57:40;;;;;;;;;;;;;;;-142.75;82.95;76554.53;5067679;28;19916;-65
2023/05/20 09:00:12;;;;;;;;;;;;;;;-142.75;81.58;76538.78;5085694;28;19963;-65
2023/05/20 09:02:40;;;;;;;;;;;;;;;-142.75;78.68;76584.06;5085702;28;20561;-64
2023/05/20 09:05:06;;;;;;;;;;;;;;;-142.75;81.11;76534.84;5085765;28;20292;-65
2023/05/20 09:07:31;;;;;;;;;;;;;;;-142.75;79.85;76507.31;5089739;28;19926;-63
2023/05/20 09:09:57;;;;;;;;;;;;;;;-142.75;79.61;76497.47;5087148;28;20367;-64
2023/05/20 09:12:22;;;;;;;;;;;;;;;-142.75;78.68;76473.84;5084666;28;19923;-65
2023/05/20 09:14:48;;;;;;;;;;;;;;;-142.75;76.79;76499.44;5085502;28;19916;-65
2023/05/20 09:17:13;;;;;;;;;;;;;;;-142.75;79.88;76460.06;5086821;28;20511;-64
2023/05/20 09:19:38;;;;;;;;;;;;;;;-142.75;74.77;76452.19;5086656;28;19916;-66
2023/05/20 09:22:04;;;;;;;;;;;;;;;-142.75;72.41;76460.06;5085415;28;19916;-66
2023/05/20 09:24:29;;;;;;;;;;;;;;;-142.75;70.03;76452.19;5085668;28;20054;-64
2023/05/20 09:26:56;;;;;;;;;;;;;;;-142.75;70.41;76464.00;5085088;28;20017;-64
2023/05/20 09:29:21;;;;;;;;;;;;;;;-142.75;74.35;76430.53;5085646;28;19916;-65
2023/05/20 09:31:47;;;;;;;;;;;;;;;-142.75;71.66;76412.81;5086215;28;19923;-65
2023/05/20 09:34:12;;;;;;;;;;;;;;;-142.75;69.93;76436.44;5085249;28;19916;-64
2023/05/20 09:36:39;;;;;;;;;;;;;;;-142.75;67.71;76521.09;5083995;28;20544;-65
2023/05/20 09:39:06;;;;;;;;;;;;;;;-142.75;67.52;76523.06;5085545;28;19924;-63
2023/05/20 09:41:34;;;;;;;;;;;;;;;-142.75;66.10;76475.81;5085493;28;19919;-62
2023/05/20 09:43:59;;;;;;;;;;;;;;;-142.75;66.48;76479.75;5083284;28;20001;-64
2023/05/20 09:46:26;;;;;;;;;;;;;;;-142.75;68.05;76452.19;5085391;28;20026;-65
2023/05/20 09:48:51;;;;;;;;;;;;;;;-142.75;71.82;76410.84;5083916;28;20419;-64
2023/05/20 09:51:17;;;;;;;;;;;;;;;-142.75;67.41;76454.16;5084634;28;19970;-65
2023/05/20 09:53:42;;;;;;;;;;;;;;;-142.75;65.07;76410.84;5085313;28;19916;-63
2023/05/20 09:56:08;;;;;;;;;;;;;;;-142.75;69.40;76345.91;5086646;28;20339;-65
2023/05/20 09:58:34;;;;;;;;;;;;;;;-142.75;63.84;76397.06;5087962;28;19963;-64
2023/05/20 10:01:00;;;;;;;;;;;;;;;-142.75;66.02;76436.44;5088658;28;19916;-66
2023/05/20 10:03:26;;;;;;;;;;;;;;;-142.75;66.58;76410.84;5094764;28;20591;-59
2023/05/20 10:06:00;;;;;;;;;;;;;;;-142.75;64.75;76424.63;5087313;28;19916;-65
2023/05/20 10:08:38;;;;;;;;;;;;;;;-142.75;63.19;76460.06;5087870;28;19920;-65
2023/05/20 10:11:03;;;;;;;;;;;;;;;-142.75;63.63;76532.88;5088870;28;19919;-64
2023/05/20 10:13:47;;;;;;;;;;;;;;;-142.75;67.86;76511.25;5088843;28;19924;-65
2023/05/20 10:16:19;;;;;;;;;;;;;;;-142.75;66.53;76501.41;5088441;28;19916;-63
2023/05/20 10:19:05;;;;;;;;;;;;;;;-142.75;66.92;76542.72;5087452;28;19927;-61
2023/05/20 10:21:31;;;;;;;;;;;;;;;-142.75;66.81;76562.41;5081658;28;19924;-65
2023/05/20 10:24:04;;;;;;;;;;;;;;;-142.75;66.82;76623.44;5088806;28;19962;-64
2023/05/20 10:26:37;;;;;;;;;;;;;;;-142.75;67.41;76660.84;5088340;28;19989;-64
2023/05/20 10:29:13;;;;;;;;;;;;;;;-142.75;68.63;76615.56;5087233;28;19959;-65
2023/05/20 10:31:43;;;;;;;;;;;;;;;-142.75;70.23;76566.34;5087293;28;19970;-63
2023/05/20 10:34:13;;;;;;;;;;;;;;;-142.75;70.05;76538.78;5088295;28;19923;-66
2023/05/20 10:36:43;;;;;;;;;;;;;;;-142.75;69.70;76444.31;5088170;28;19916;-65
2023/05/20 10:39:15;;;;;;;;;;;;;;;-142.75;69.94;76363.59;5088186;28;19922;-66
2023/05/20 10:41:40;;;;;;;;;;;;;;;-142.75;68.42;76371.47;5094064;28;19924;-64
2023/05/20 10:44:05;;;;;;;;;;;;;;;-142.75;66.66;76399.03;5088892;28;19964;-64
2023/05/20 10:46:31;;;;;;;;;;;;;;;-142.75;66.68;76359.66;5086870;28;19920;-66
2023/05/20 10:48:57;;;;;;;;;;;;;;;-142.75;67.70;76381.31;5088275;28;19916;-62
2023/05/20 10:51:23;;;;;;;;;;;;;;;-142.75;67.87;76454.16;5088876;28;19976;-66
2023/05/20 10:53:51;;;;;;;;;;;;;;;-142.75;61.65;76548.63;5087924;28;19923;-63
2023/05/20 10:56:17;;;;;;;;;;;;;;;-142.75;67.23;76550.59;5087872;28;20256;-64
2023/05/20 10:58:43;;;;;;;;;;;;;;;-142.75;65.19;76605.72;5088265;28;19923;-62
2023/05/20 11:01:09;;;;;;;;;;;;;;;-142.75;64.50;76534.84;5086996;28;20412;-64
2023/05/20 11:03:35;;;;;;;;;;;;;;;-142.75;67.47;76446.28;5086461;28;19920;-63
2023/05/20 11:06:00;;;;;;;;;;;;;;;-142.75;62.41;76499.44;5086639;28;20437;-65
2023/05/20 11:08:30;;;;;;;;;;;;;;;-142.75;65.00;76501.41;5087803;28;20454;-64
2023/05/20 11:10:56;;;;;;;;;;;;;;;-142.75;68.18;76479.75;5088440;28;19923;-64
2023/05/20 11:13:21;;;;;;;;;;;;;;;-142.75;63.29;76438.41;5088065;28;19932;-59
2023/05/20 11:15:47;;;;;;;;;;;;;;;-142.75;60.21;76399.03;5086367;28;19916;-61
2023/05/20 11:18:14;;;;;;;;;;;;;;;-142.75;62.42;76434.47;5088488;28;20306;-63
2023/05/20 11:20:39;;;;;;;;;;;;;;;-142.75;62.26;76479.75;5088426;28;19920;-64
2023/05/20 11:23:05;;;;;;;;;;;;;;;-142.75;61.60;76434.47;5088498;28;19999;-64
2023/05/20 11:25:31;;;;;;;;;;;;;;;-142.75;64.82;76440.38;5087789;28;19931;-62
2023/05/20 11:27:57;;;;;;;;;;;;;;;-142.75;62.33;76422.66;5087364;28;19920;-65
2023/05/20 11:30:22;;;;;;;;;;;;;;;-142.75;62.98;76395.09;5083055;28;20394;-62
2023/05/20 11:33:00;;;;;;;;;;;;;;;-142.75;60.49;76428.56;5086007;28;20430;-63
2023/05/20 11:35:28;;;;;;;;;;;;;;;-142.75;62.94;76395.09;5085170;28;19944;-63
2023/05/20 11:38:00;;;;;;;;;;;;;;;-142.75;64.50;76436.44;5085368;28;20435;-63
2023/05/20 11:40:26;;;;;;;;;;;;;;;-142.75;63.23;76465.97;5084986;28;19916;-62
2023/05/20 11:42:52;;;;;;;;;;;;;;;-142.75;63.93;76440.38;5085989;28;20416;-63
2023/05/20 11:45:17;;;;;;;;;;;;;;;-142.75;65.88;76353.78;5087021;28;19977;-66
2023/05/20 11:47:42;;;;;;;;;;;;;;;-142.75;59.33;76373.44;5086151;28;19923;-64
2023/05/20 11:50:08;;;;;;;;;;;;;;;-142.75;63.04;76314.41;5086173;28;19916;-64
2023/05/20 11:52:33;;;;;;;;;;;;;;;-142.75;59.38;76302.59;5086693;28;20407;-65
2023/05/20 11:54:59;;;;;;;;;;;;;;;-142.75;64.57;76277.00;5086563;28;19916;-66
2023/05/20 11:57:24;;;;;;;;;;;;;;;-142.75;60.61;76278.97;5087713;28;19920;-65
2023/05/20 11:59:49;;;;;;;;;;;;;;;-142.75;61.75;76292.75;5092104;28;19916;-63
2023/05/20 12:02:15;;;;;;;;;;;;;;;-142.75;59.39;76345.91;5087470;28;19977;-63
2023/05/20 12:04:40;;;;;;;;;;;;;;;-142.75;62.95;76324.25;5086034;28;19916;-64
2023/05/20 12:07:08;;;;;;;;;;;;;;;-142.75;64.94;76243.53;5086833;28;19927;-64
2023/05/20 12:09:33;;;;;;;;;;;;;;;-142.75;64.30;76182.53;5087173;28;19916;-64
2023/05/20 12:11:58;;;;;;;;;;;;;;;-142.75;58.38;76235.66;5085566;28;19934;-63
2023/05/20 12:14:23;;;;;;;;;;;;;;;-142.75;59.85;76188.44;5087345;28;19927;-64